LLSR weather

Soroka Medical Center
Beersheba, Southern District, Israel

Public forecast

Using degrees Celsius for public forecast. Weather courtesy of forecast.io.

METAR (pilot weather report)

Closest report is Ben Gurion International Airport, 45.4 nm (84.1 km) N. Retrieved 2019/07/18 10:20 UTC (38 minutes ago):

LLBG 181020Z 27012KT 240V310 9999 FEW035 31/20 Q1008 NOSIG

TAF (pilot weather forecast)

Forecast is more than 12 hours old.

Closest forecast is El Gora Airport, 36.3 nm (67.2 km) WSW. Retrieved 2019/06/09 06:00 UTC (1 month ago):

TAF HEGR 090500Z 0906/1012 23008KT 9999 SCT025